| Date | Time | Temp. (oF) | Dew Point (oF) | Rel. Hum. (%) | Press. (in.) | Wind Dir. | Wind Speed (mph) | Hourly Rainfall (in.) |
|
|---|---|---|---|---|---|---|---|---|---|
| 1 | 10/07 | 00:00 | 63 | 58 | 84 | 30.10 | SE | 4 | 0.00 |
| 2 | 10/06 | 23:00 | 63 | 57 | 81 | 30.12 | SSE | 4 | 0.00 |
| 3 | 10/06 | 22:00 | 63 | 56 | 79 | 30.13 | S | 6 | 0.00 |
| 4 | 10/06 | 21:00 | 63 | 55 | 77 | 30.14 | S | 3 | 0.00 |
| 5 | 10/06 | 20:00 | 64 | 54 | 71 | 30.15 | ESE | 4 | 0.00 |
| 6 | 10/06 | 19:00 | 65 | 52 | 63 | 30.16 | SE | 1 | 0.00 |
| 7 | 10/06 | 18:00 | 68 | 51 | 56 | 30.15 | SSE | 2 | 0.00 |
| 8 | 10/06 | 17:00 | 69 | 48 | 48 | 30.15 | SSE | 2 | 0.00 |
| 9 | 10/06 | 16:00 | 71 | 49 | 47 | 30.16 | ESE | 10 | 0.00 |
| 10 | 10/06 | 15:00 | 69 | 50 | 52 | 30.18 | E | 5 | 0.00 |
| 11 | 10/06 | 14:00 | 69 | 51 | 53 | 30.22 | E | 4 | 0.00 |
| 12 | 10/06 | 13:00 | 67 | 51 | 57 | 30.26 | E | 4 | 0.00 |
| 13 | 10/06 | 12:00 | 65 | 49 | 57 | 30.28 | NNE | 4 | 0.00 |
| 14 | 10/06 | 11:00 | 63 | 51 | 65 | 30.31 | E | 6 | 0.00 |
| 15 | 10/06 | 10:00 | 60 | 51 | 73 | 30.32 | ENE | 5 | 0.00 |
| 16 | 10/06 | 09:00 | 54 | 52 | 96 | 30.32 | NNE | 3 | 0.00 |
| 17 | 10/06 | 08:00 | 48 | 47 | 97 | 30.32 | NE | 0 | 0.00 |
| 18 | 10/06 | 07:00 | 49 | 47 | 93 | 30.30 | N | 0 | 0.00 |
| 19 | 10/06 | 06:00 | 51 | 47 | 89 | 30.28 | N | 0 | 0.00 |
| 20 | 10/06 | 05:00 | 53 | 49 | 87 | 30.27 | N | 0 | 0.00 |
| 21 | 10/06 | 04:00 | 53 | 49 | 89 | 30.25 | NNW | 2 | 0.00 |
| 22 | 10/06 | 03:00 | 54 | 49 | 86 | 30.24 | NW | 1 | 0.00 |
| 23 | 10/06 | 02:00 | 56 | 49 | 80 | 30.24 | NW | 1 | 0.00 |
| 24 | 10/06 | 01:00 | 59 | 51 | 77 | 30.23 | WNW | 1 | 0.00 |